Latest Weather Observations for Coober Pedy Airport

IDS60801

Issued at 12:31 pm CST Wednesday 28 September 2016 (issued every 30 minutes, with the page automatically refreshed every 10 minutes)

About weather observations | Map of weather stations | Latest weather observations for SA | Other Formats
Station Details ID: 016090 Name: COOBER PEDY AIRPORT Lat: -29.03 Lon: 134.72 Height: 225.0 m
Data from the previous 72 hours. | See also: Recent months at Coober Pedy Airport
Date/Time
CST
Temp
°C
App
Temp
°C
Dew
Point
°C
Rel
Hum
%
Delta-T
°C
Wind Press
QNH
hPa
Press
MSL
hPa
Rain since
9am
mm
Dir  Spd
km/h
Gust
km/h
Spd
kts
Gust
kts
28/12:30pm 28.7 15.9 0.4 16 13.7 W 57 74 31 40 999.6 998.9 0.0
28/12:00pm 30.2 17.2 -1.2 13 14.9 W 57 76 31 41 999.5 998.8 0.0
28/11:30am 30.5 17.3 -3.3 11 15.6 WNW 57 76 31 41 999.7 999.0 0.0
28/11:08am 30.5 18.6 -3.3 11 15.5 WNW 50 74 27 40 1000.0 999.4 0.0
28/11:00am 30.1 19.2 -1.3 13 14.8 WNW 46 61 25 33 1000.2 999.6 0.0
28/10:44am 30.0 19.8 -0.4 14 14.6 WNW 43 61 23 33 1000.4 999.8 0.0
28/10:30am 29.8 20.2 1.3 16 14.1 WNW 41 57 22 31 1000.6 1000.0 0.0
28/10:26am 29.6 20.7 2.8 18 13.5 NW 39 57 21 31 1000.7 1000.1 0.0
28/10:22am 29.0 20.8 4.5 21 12.7 NW 37 48 20 26 1000.8 1000.2 0.0
28/10:00am 27.7 21.4 9.0 31 10.4 NNW 32 44 17 24 1001.3 1000.7 0.0
28/09:30am 24.0 18.8 12.9 50 6.5 NNW 32 37 17 20 1002.1 1001.5 0.0
28/09:00am 22.3 17.5 13.9 59 5.0 NNW 32 43 17 23 1002.6 1002.0 0.0
28/08:30am 21.0 15.4 14.4 66 3.9 N 37 50 20 27 1002.8 1002.2 0.0
28/08:17am 21.1 15.2 11.2 53 5.5 N 33 52 18 28 1002.7 1002.1 0.0
28/08:00am 19.8 14.8 12.3 62 4.2 NNE 30 39 16 21 1002.7 1002.1 0.0
28/07:30am 18.8 14.0 11.6 63 4.0 NNE 28 35 15 19 1002.9 1002.3 0.0
28/07:00am 18.4 12.4 10.0 58 4.5 NNE 32 39 17 21 1003.0 1002.4 0.0
28/06:30am 18.0 11.1 8.8 55 4.8 NNE 35 46 19 25 1002.8 1002.2 0.0
28/06:00am 16.4 11.1 9.8 65 3.5 NE 28 33 15 18 1002.8 1002.2 0.0
28/05:30am 16.0 9.9 8.2 60 4.0 NE 30 35 16 19 1002.8 1002.2 0.0
28/05:00am 16.1 9.9 7.8 58 4.2 NE 30 35 16 19 1003.1 1002.5 0.0
28/04:30am 15.8 9.7 6.5 54 4.6 NE 28 33 15 18 1003.8 1003.2 0.0
28/04:00am 16.0 9.0 5.9 51 4.9 NE 32 39 17 21 1004.1 1003.5 0.0
28/03:30am 16.1 8.7 4.8 47 5.4 NE 33 43 18 23 1004.7 1004.1 0.0
28/03:00am 16.6 8.7 4.6 45 5.8 NE 35 46 19 25 1005.6 1005.0 0.0
28/02:30am 16.8 9.5 4.5 44 5.9 NE 32 37 17 20 1006.3 1005.7 0.0
28/02:00am 17.2 9.7 4.2 42 6.2 NE 33 39 18 21 1007.0 1006.4 0.0
28/01:30am 16.7 9.2 3.7 42 6.1 NE 32 39 17 21 1007.7 1007.2 0.0
28/01:00am 16.7 9.6 3.4 41 6.2 NE 30 35 16 19 1008.6 1008.0 0.0
28/12:30am 17.5 9.8 3.4 39 6.6 NE 33 39 18 21 1009.1 1008.5 0.0
28/12:00am 18.1 10.6 3.6 38 6.9 ENE 32 37 17 20 1009.7 1009.1 0.0
 
Date/Time
CST
Temp
°C
App
Temp
°C
Dew
Point
°C
Rel
Hum
%
Delta-T
°C
Wind Press
QNH
hPa
Press
MSL
hPa
Rain since
9am
mm
Dir  Spd
km/h
Gust
km/h
Spd
kts
Gust
kts
27/11:30pm 18.2 11.6 4.0 39 6.8 ENE 28 35 15 19 1010.0 1009.4 0.0
27/11:00pm 18.0 12.5 3.9 39 6.7 ENE 22 28 12 15 1010.2 1009.6 0.0
27/10:30pm 18.3 13.1 3.4 37 7.0 E 20 24 11 13 1011.0 1010.4 0.0
27/10:00pm 18.3 13.6 3.4 37 7.0 E 17 22 9 12 1011.4 1010.9 0.0
27/09:30pm 18.4 13.8 3.5 37 7.1 E 17 19 9 10 1011.6 1011.1 0.0
27/09:00pm 18.7 14.0 3.3 36 7.3 E 17 19 9 10 1012.0 1011.5 0.0
27/08:30pm 19.1 14.5 3.7 36 7.4 E 17 19 9 10 1011.9 1011.4 0.0
27/08:00pm 19.6 15.4 3.7 35 7.6 E 15 17 8 9 1011.9 1011.4 0.0
27/07:30pm 20.2 15.9 3.4 33 8.0 ENE 15 15 8 8 1012.1 1011.6 0.0
27/07:00pm 21.4 17.1 3.1 30 8.8 ENE 15 17 8 9 1012.1 1011.6 0.0
27/06:30pm 22.4 18.1 3.5 29 9.2 ENE 15 17 8 9 1011.8 1011.3 0.0
27/06:00pm 23.4 18.7 3.4 27 9.8 ENE 17 20 9 11 1011.8 1011.3 0.0
27/05:30pm 24.0 19.3 3.3 26 10.2 ENE 17 20 9 11 1011.8 1011.3 0.0
27/05:00pm 23.8 19.8 2.6 25 10.3 NE 13 20 7 11 1012.0 1011.5 0.0
27/04:30pm 24.2 20.9 2.4 24 10.5 ENE 9 15 5 8 1012.2 1011.7 0.0
27/04:00pm 24.2 20.1 2.4 24 10.5 ENE 13 20 7 11 1012.6 1012.1 0.0
27/03:30pm 24.2 21.3 2.4 24 10.5 NE 7 13 4 7 1012.9 1012.3 0.0
27/03:00pm 24.1 20.3 1.7 23 10.7 ENE 11 24 6 13 1013.3 1012.7 0.0
27/02:30pm 23.6 20.3 2.4 25 10.2 SE 9 17 5 9 1013.8 1013.2 0.0
27/02:00pm 23.3 19.5 1.6 24 10.3 SSE 11 20 6 11 1014.5 1013.9 0.0
27/01:30pm 22.7 19.7 1.7 25 9.9 ENE 7 13 4 7 1015.0 1014.4 0.0
27/01:00pm 22.4 18.5 1.4 25 9.8 ESE 11 20 6 11 1015.5 1015.0 0.0
27/12:30pm 21.6 18.1 1.3 26 9.4 S 9 20 5 11 1016.2 1015.7 0.0
27/12:00pm 22.0 19.0 2.2 27 9.4 S 7 17 4 9 1016.6 1016.1 0.0
27/11:30am 20.9 17.0 1.2 27 9.1 ESE 11 17 6 9 1017.1 1016.6 0.0
27/11:00am 19.9 14.8 0.9 28 8.6 SSE 17 24 9 13 1017.7 1017.1 0.0
27/10:30am 18.9 13.5 1.0 30 8.1 SE 19 26 10 14 1017.9 1017.3 0.0
27/10:00am 17.8 11.8 0.9 32 7.6 SE 22 28 12 15 1018.0 1017.4 0.0
27/09:30am 17.2 10.8 0.8 33 7.3 SSE 24 30 13 16 1018.2 1017.6 0.0
27/09:00am 15.8 9.2 -0.4 33 6.9 SE 24 32 13 17 1018.3 1017.7 0.0
27/08:30am 14.8 8.7 0.6 38 6.1 SE 22 30 12 16 1018.6 1018.0 0.0
27/08:00am 13.1 7.3 2.1 47 4.8 SE 22 30 12 16 1018.4 1017.8 0.0
27/07:30am 12.0 7.2 2.7 53 4.1 SE 17 22 9 12 1018.2 1017.6 0.0
27/07:00am 11.1 6.0 2.9 57 3.6 SSE 19 24 10 13 1017.7 1017.1 0.0
27/06:30am 10.4 5.7 3.2 61 3.2 SSE 17 20 9 11 1017.4 1016.8 0.0
27/06:00am 10.6 5.0 3.4 61 3.2 SSE 22 28 12 15 1016.8 1016.3 0.0
27/05:30am 10.9 5.9 3.5 60 3.3 SSE 19 26 10 14 1016.6 1016.1 0.0
27/05:00am 11.1 6.4 3.4 59 3.4 SSE 17 20 9 11 1016.3 1015.8 0.0
27/04:30am 11.6 5.6 3.4 57 3.7 SSE 24 28 13 15 1016.3 1015.8 0.0
27/04:00am 11.9 5.9 3.4 56 3.8 S 24 30 13 16 1016.0 1015.5 0.0
27/03:30am 12.3 6.7 3.5 55 4.0 S 22 28 12 15 1015.9 1015.4 0.0
27/03:00am 12.9 6.6 3.6 53 4.2 S 26 30 14 16 1015.7 1015.2 0.0
27/02:30am 13.6 7.7 3.9 52 4.5 S 24 32 13 17 1015.8 1015.3 0.0
27/02:00am 14.2 8.4 4.2 51 4.6 S 24 32 13 17 1015.8 1015.3 0.0
27/01:30am 14.7 9.4 5.0 52 4.6 S 22 26 12 14 1015.9 1015.4 0.0
27/01:00am 15.3 9.6 5.0 50 4.9 S 24 30 13 16 1016.0 1015.5 0.0
27/12:30am 15.9 10.5 4.6 47 5.4 S 22 30 12 16 1016.1 1015.6 0.0
27/12:00am 16.3 11.3 4.4 45 5.6 S 20 24 11 13 1016.1 1015.6 0.0
 
Date/Time
CST
Temp
°C
App
Temp
°C
Dew
Point
°C
Rel
Hum
%
Delta-T
°C
Wind Press
QNH
hPa
Press
MSL
hPa
Rain since
9am
mm
Dir  Spd
km/h
Gust
km/h
Spd
kts
Gust
kts
26/11:30pm 16.8 11.7 4.2 43 6.0 S 20 24 11 13 1016.1 1015.6 0.0
26/11:00pm 17.2 12.6 3.8 41 6.3 S 17 20 9 11 1015.9 1015.4 0.0
26/10:30pm 17.5 12.9 3.8 40 6.5 S 17 22 9 12 1015.9 1015.4 0.0
26/10:00pm 17.8 13.4 2.9 37 6.9 S 15 17 8 9 1015.8 1015.3 0.0
26/09:30pm 18.4 13.7 3.1 36 7.2 SSW 17 19 9 10 1015.7 1015.2 0.0
26/09:00pm 18.6 14.9 2.4 34 7.5 SSW 11 13 6 7 1015.4 1014.9 0.0
26/08:30pm 19.5 15.8 2.4 32 8.0 SW 11 13 6 7 1015.1 1014.5 0.0
26/08:00pm 20.5 16.4 2.3 30 8.5 SSW 13 13 7 7 1014.7 1014.1 0.0
26/07:30pm 21.0 16.9 2.3 29 8.8 SW 13 13 7 7 1014.2 1013.6 0.0
26/07:00pm 23.1 17.8 2.0 25 10.0 SW 19 26 10 14 1013.7 1013.1 0.0
26/06:30pm 24.2 17.3 2.4 24 10.5 SW 28 39 15 21 1013.1 1012.5 0.0
26/06:00pm 26.4 21.1 3.0 22 11.6 WNW 20 30 11 16 1012.8 1012.2 0.0
26/05:30pm 26.8 21.9 4.0 23 11.6 WNW 19 33 10 18 1012.3 1011.8 0.0
26/05:00pm 26.8 22.0 4.6 24 11.4 NW 19 26 10 14 1012.3 1011.8 0.0
26/04:30pm 26.7 21.3 4.5 24 11.3 NW 22 33 12 18 1012.3 1011.8 0.0
26/04:00pm 26.8 20.7 4.6 24 11.4 NW 26 39 14 21 1012.2 1011.7 0.0
26/03:30pm 26.9 20.4 4.6 24 11.4 NW 28 37 15 20 1012.2 1011.7 0.0
26/03:00pm 26.9 20.0 4.6 24 11.4 NW 30 43 16 23 1012.3 1011.8 0.0
26/02:30pm 27.7 21.1 4.1 22 12.1 NW 28 43 15 23 1012.5 1012.0 0.0
26/02:08pm 26.8 19.8 4.0 23 11.6 NW 30 48 16 26 1012.8 1012.2 0.0
26/02:00pm 27.0 20.0 4.1 23 11.6 NW 30 43 16 23 1013.0 1012.4 0.0
26/01:30pm 26.8 19.8 4.0 23 11.6 NNW 30 43 16 23 1013.3 1012.7 0.0
26/01:00pm 25.6 18.0 2.9 23 11.2 NNW 32 43 17 23 1013.6 1013.0 0.0
26/12:30pm 25.3 17.4 2.1 22 11.2 NNW 33 43 18 23 1013.8 1013.2 0.0
26/12:00pm 24.2 16.2 0.5 21 11.1 NNW 32 39 17 21 1014.5 1013.9 0.0
26/11:30am 22.8 14.5 -0.6 21 10.6 N 33 43 18 23 1014.9 1014.3 0.0
26/11:00am 21.8 13.9 2.5 28 9.2 N 33 41 18 22 1015.1 1014.5 0.0
26/10:30am 20.8 11.4 -10.7 11 11.5 N 33 41 18 22 1015.2 1014.7 0.0
26/10:00am 19.1 9.6 -12.0 11 10.8 N 33 39 18 21 1015.3 1014.8 0.0
26/09:30am 17.9 8.6 -11.9 12 10.2 N 32 39 17 21 1015.3 1014.8 0.0
26/09:00am 16.6 8.8 1.9 37 6.6 N 32 37 17 20 1015.2 1014.7 0.0
26/08:30am 15.9 8.9 2.0 39 6.2 N 28 35 15 19 1015.1 1014.5 0.0
26/08:00am 14.3 8.1 1.9 43 5.5 N 24 28 13 15 1014.9 1014.3 0.0
26/07:30am 13.4 6.6 1.1 43 5.3 N 26 30 14 16 1014.8 1014.2 0.0
26/07:00am 12.6 6.9 0.7 44 5.1 NNE 20 24 11 13 1014.4 1013.8 0.0
26/06:30am 12.4 5.9 0.5 44 5.0 NNE 24 28 13 15 1014.2 1013.6 0.0
26/06:00am 11.7 5.2 0.2 45 4.8 NNE 24 26 13 14 1014.1 1013.5 0.0
26/05:30am 10.7 4.4 -0.7 45 4.6 NNE 22 24 12 13 1013.8 1013.2 0.0
26/05:00am 10.7 4.0 -1.0 44 4.7 NNE 24 28 13 15 1013.6 1013.0 0.0
26/04:30am 10.4 4.1 -1.0 45 4.6 NNE 22 26 12 14 1013.8 1013.2 0.0
26/04:00am 11.3 4.6 -1.1 42 5.0 NE 24 26 13 14 1013.8 1013.2 0.0
26/03:30am 11.6 5.7 -0.9 42 5.1 NE 20 24 11 13 1014.1 1013.5 0.0
26/03:00am 12.1 5.8 -1.1 40 5.4 NE 22 24 12 13 1014.3 1013.7 0.0
26/02:30am 12.1 6.2 -1.1 40 5.4 NE 20 24 11 13 1014.8 1014.2 0.0
26/02:00am 11.9 6.6 -0.9 41 5.2 NE 17 20 9 11 1015.1 1014.5 0.0
26/01:30am 12.3 7.0 -0.9 40 5.4 NE 17 19 9 10 1015.3 1014.8 0.0
26/01:00am 12.4 7.8 -0.8 40 5.4 ENE 13 17 7 9 1015.6 1015.1 0.0
26/12:30am 12.7 7.8 -0.5 40 5.5 NE 15 17 8 9 1015.7 1015.2 0.0
26/12:00am 12.7 8.2 -0.5 40 5.5 ENE 13 15 7 8 1015.9 1015.4 0.0
 
Date/Time
CST
Temp
°C
App
Temp
°C
Dew
Point
°C
Rel
Hum
%
Delta-T
°C
Wind Press
QNH
hPa
Press
MSL
hPa
Rain since
9am
mm
Dir  Spd
km/h
Gust
km/h
Spd
kts
Gust
kts
25/11:30pm 13.3 8.4 -0.7 38 5.8 ENE 15 17 8 9 1016.1 1015.6 0.0
25/11:00pm 13.7 8.8 -0.3 38 5.9 ENE 15 15 8 8 1016.3 1015.8 0.0
25/10:30pm 13.2 8.7 -0.1 40 5.6 ENE 13 13 7 7 1016.5 1016.0 0.0
25/10:00pm 14.2 9.7 -0.3 37 6.1 E 13 15 7 8 1016.3 1015.8 0.0
25/09:30pm 14.7 9.8 -0.2 36 6.3 ENE 15 15 8 8 1016.3 1015.8 0.0
25/09:00pm 15.2 10.4 -0.1 35 6.5 ENE 15 15 8 8 1016.3 1015.8 0.0
25/08:30pm 15.9 11.0 -0.3 33 6.9 NE 15 15 8 8 1015.9 1015.4 0.0
25/08:00pm 16.7 12.2 -0.1 32 7.3 NE 13 15 7 8 1015.6 1015.1 0.0
25/07:30pm 17.8 15.7 -0.5 29 7.9 CALM 0 0 0 0 1015.2 1014.7 0.0
25/07:00pm 18.6 16.6 -0.2 28 8.3 CALM 0 0 0 0 1014.8 1014.2 0.0
25/06:30pm 19.3 16.5 -0.7 26 8.8 N 4 13 2 7 1014.6 1014.0 0.0
25/06:00pm 20.1 17.2 -1.1 24 9.3 WNW 4 11 2 6 1014.4 1013.8 0.0
25/05:30pm 20.6 16.5 -0.1 25 9.3 W 11 24 6 13 1014.1 1013.5 0.0
25/05:00pm 20.5 16.3 -0.7 24 9.4 NW 11 19 6 10 1014.1 1013.5 0.0
25/04:30pm 20.4 16.6 -0.8 24 9.4 WSW 9 15 5 8 1014.0 1013.4 0.0
25/04:00pm 20.6 16.1 -0.1 25 9.3 W 13 20 7 11 1014.2 1013.6 0.0
25/03:30pm 20.0 15.1 -0.6 25 9.1 WSW 15 26 8 14 1014.3 1013.7 0.0
25/03:00pm 19.5 16.0 -1.0 25 8.9 WNW 7 19 4 10 1014.5 1013.9 0.0
25/02:30pm 19.9 14.6 -0.7 25 9.1 WSW 17 26 9 14 1015.1 1014.5 0.0
25/02:00pm 18.8 14.2 -1.1 26 8.6 WSW 13 20 7 11 1015.4 1014.9 0.0
25/01:30pm 18.9 14.8 -0.5 27 8.5 SSW 11 30 6 16 1016.0 1015.5 0.0
25/01:00pm 18.6 12.8 -0.2 28 8.3 SW 20 32 11 17 1016.8 1016.3 0.0

Other Formats:

Comma delimited format used in spreadsheet applications
http://www.bom.gov.au/fwo/IDS60801/IDS60801.95458.axf

JavaScript Object Notation format (JSON) in row-major order
http://www.bom.gov.au/fwo/IDS60801/IDS60801.95458.json